map of MED home
MED - Airport
Location
City:  Medina, Saudi Arabia
Near (Alt.):Madinah
Name:Prince Mohammad bin Abdulaziz International Airport
Old (Alt.):Medina Airport
ICAO:OEMA
IATA:MED

Details
Type:Airport (Aerodrome, Airfield)
Use:Public/Civil, International (customs port of entry)
Latitude:2433'01"N (24.550278)
Longitude:3942'21"E (39.705833)
Elevation:2134 ft (650 m)
Variation:3.74E (WMM2015 magnetic declination)
0.06 annual change
Runways:2
Longest:14222 × 197 ft (4335 × 60 m), paved

Time
Time Zone:UTC+3
Local Time:

Weather
METAR:OEMA 131800Z 33003KT CAVOK 18/M16 Q1018 NOSIG

Related Locations
Nearby:
Farthest:UOA: 12222 mi / 19670 km
Mururoa Atoll [Mururoa Airstrip], PF

Find:

   beyond  
but within

Other Information
Maps:
NOTAMs:
Links:
Sources:

  
flag of Saudi Arabia   

Sectional Chart

Flight Planning
at skyvector.com

Satellite Image

Google Maps Satellite view

 

Copyright © 2004-2017 Karl L. Swartz. All rights reserved.
The Great Circle Mapper name and logo are trademarks of the Great Circle Mapper.
All other trademarks mentioned herein belong to their respective owners.
Please see credits for attibutions and further copyright information.

  Follow gcmap on Facebook Follow gcmap on Twitter Follow gcmap on Google+ GCmap on LinkedIn

hCard Microformat

Geo Microformat